Adamsville, Rhode Island
Current Conditions -  °F | °C
As of 8:53 AM on Monday 20 Oct 2014 (Local Time) from KUUU Reporting Station
Clear Clear  
Wind Chill: 41°   Ceiling: Unl
Heat Index: 44°   Visibility: 10mi
Dew Point: 29°   Wind: 6mph
Humidity: 55%   Direction: NA
Pressure: 30.09"   Gusts: NA
Location:  41.55°N, 71.13°W
Report Text: KUUU 201253Z AUTO VRB05KT 10SM CLR 07/M02 A3009 RMK AO2 SLP190 T00671017
Loading
Personal Weather Stations






























Interactive Weather Map
Tropical Storm Tracking
New forecast layout! Learn more

10-Day Weather Forecast

Advertisements
Track Severe Weather on mobile